sensor_id;sensor_type;location;lat;lon;timestamp;P1;durP1;ratioP1;P2;durP2;ratioP2
43160;SDS011;40968;52.342;5.528;2023-04-03T00:00:04;2.65;;;1.25;;
43160;SDS011;40968;52.342;5.528;2023-04-03T00:02:33;3.20;;;1.50;;
43160;SDS011;40968;52.342;5.528;2023-04-03T00:04:59;3.50;;;1.38;;
43160;SDS011;40968;52.342;5.528;2023-04-03T00:07:26;2.50;;;1.23;;
43160;SDS011;40968;52.342;5.528;2023-04-03T00:09:53;7.03;;;1.38;;
43160;SDS011;40968;52.342;5.528;2023-04-03T00:12:19;5.75;;;1.55;;
43160;SDS011;40968;52.342;5.528;2023-04-03T00:14:46;4.35;;;1.50;;
43160;SDS011;40968;52.342;5.528;2023-04-03T00:17:14;4.43;;;1.70;;
43160;SDS011;40968;52.342;5.528;2023-04-03T00:19:40;3.40;;;1.40;;
43160;SDS011;40968;52.342;5.528;2023-04-03T00:22:07;5.20;;;1.40;;
43160;SDS011;40968;52.342;5.528;2023-04-03T00:24:33;3.63;;;1.30;;
43160;SDS011;40968;52.342;5.528;2023-04-03T00:27:00;6.28;;;1.45;;
43160;SDS011;40968;52.342;5.528;2023-04-03T00:29:27;7.00;;;1.70;;
43160;SDS011;40968;52.342;5.528;2023-04-03T00:31:53;4.47;;;1.60;;
43160;SDS011;40968;52.342;5.528;2023-04-03T00:34:21;7.30;;;1.60;;
43160;SDS011;40968;52.342;5.528;2023-04-03T00:36:48;6.22;;;1.73;;
43160;SDS011;40968;52.342;5.528;2023-04-03T00:39:14;2.70;;;1.38;;
43160;SDS011;40968;52.342;5.528;2023-04-03T00:41:41;4.20;;;1.48;;
43160;SDS011;40968;52.342;5.528;2023-04-03T00:44:18;7.90;;;2.25;;
43160;SDS011;40968;52.342;5.528;2023-04-03T00:46:46;3.10;;;1.55;;
43160;SDS011;40968;52.342;5.528;2023-04-03T00:49:13;4.75;;;1.65;;
43160;SDS011;40968;52.342;5.528;2023-04-03T00:51:41;5.97;;;1.73;;
43160;SDS011;40968;52.342;5.528;2023-04-03T00:54:08;5.93;;;1.70;;
43160;SDS011;40968;52.342;5.528;2023-04-03T00:56:35;5.18;;;1.65;;
43160;SDS011;40968;52.342;5.528;2023-04-03T00:59:04;4.53;;;1.77;;
43160;SDS011;40968;52.342;5.528;2023-04-03T01:01:34;6.00;;;2.00;;
43160;SDS011;40968;52.342;5.528;2023-04-03T01:04:02;11.75;;;1.90;;
43160;SDS011;40968;52.342;5.528;2023-04-03T01:06:32;4.88;;;1.60;;
43160;SDS011;40968;52.342;5.528;2023-04-03T01:09:03;4.88;;;1.85;;
43160;SDS011;40968;52.342;5.528;2023-04-03T01:11:30;3.72;;;1.55;;
43160;SDS011;40968;52.342;5.528;2023-04-03T01:13:57;4.93;;;1.52;;
43160;SDS011;40968;52.342;5.528;2023-04-03T01:16:23;4.82;;;1.50;;
43160;SDS011;40968;52.342;5.528;2023-04-03T01:18:50;8.50;;;2.55;;
43160;SDS011;40968;52.342;5.528;2023-04-03T01:24:22;5.82;;;1.90;;
43160;SDS011;40968;52.342;5.528;2023-04-03T01:26:56;5.97;;;2.15;;
43160;SDS011;40968;52.342;5.528;2023-04-03T01:29:23;7.65;;;1.60;;
43160;SDS011;40968;52.342;5.528;2023-04-03T01:31:52;8.40;;;1.90;;
43160;SDS011;40968;52.342;5.528;2023-04-03T01:34:20;10.70;;;2.20;;
43160;SDS011;40968;52.342;5.528;2023-04-03T01:36:47;4.22;;;1.58;;
43160;SDS011;40968;52.342;5.528;2023-04-03T01:39:15;7.72;;;2.60;;
43160;SDS011;40968;52.342;5.528;2023-04-03T01:41:42;5.82;;;2.00;;
43160;SDS011;40968;52.342;5.528;2023-04-03T01:44:10;6.38;;;1.90;;
43160;SDS011;40968;52.342;5.528;2023-04-03T01:46:36;10.82;;;2.30;;
43160;SDS011;40968;52.342;5.528;2023-04-03T01:49:05;9.48;;;1.92;;
43160;SDS011;40968;52.342;5.528;2023-04-03T01:51:31;8.45;;;1.90;;
43160;SDS011;40968;52.342;5.528;2023-04-03T01:53:58;5.88;;;2.15;;
43160;SDS011;40968;52.342;5.528;2023-04-03T01:56:25;7.20;;;2.08;;
43160;SDS011;40968;52.342;5.528;2023-04-03T01:58:51;8.95;;;1.77;;
43160;SDS011;40968;52.342;5.528;2023-04-03T02:01:18;5.05;;;2.00;;
43160;SDS011;40968;52.342;5.528;2023-04-03T02:03:45;7.15;;;1.98;;
43160;SDS011;40968;52.342;5.528;2023-04-03T02:06:13;9.95;;;1.90;;
43160;SDS011;40968;52.342;5.528;2023-04-03T02:08:39;9.38;;;2.42;;
43160;SDS011;40968;52.342;5.528;2023-04-03T02:11:06;5.13;;;1.90;;
43160;SDS011;40968;52.342;5.528;2023-04-03T02:13:33;4.88;;;1.75;;
43160;SDS011;40968;52.342;5.528;2023-04-03T02:16:05;7.85;;;2.60;;
43160;SDS011;40968;52.342;5.528;2023-04-03T02:18:32;7.25;;;1.77;;
43160;SDS011;40968;52.342;5.528;2023-04-03T02:20:59;4.97;;;1.80;;
43160;SDS011;40968;52.342;5.528;2023-04-03T02:23:27;9.57;;;2.70;;
43160;SDS011;40968;52.342;5.528;2023-04-03T02:26:01;5.43;;;1.85;;
43160;SDS011;40968;52.342;5.528;2023-04-03T02:28:29;6.75;;;1.75;;
43160;SDS011;40968;52.342;5.528;2023-04-03T02:30:56;8.82;;;2.20;;
43160;SDS011;40968;52.342;5.528;2023-04-03T02:33:22;4.82;;;2.63;;
43160;SDS011;40968;52.342;5.528;2023-04-03T02:35:51;4.57;;;1.75;;
43160;SDS011;40968;52.342;5.528;2023-04-03T02:38:19;5.57;;;1.83;;
43160;SDS011;40968;52.342;5.528;2023-04-03T02:40:46;6.80;;;2.15;;
43160;SDS011;40968;52.342;5.528;2023-04-03T02:43:13;6.40;;;1.65;;
43160;SDS011;40968;52.342;5.528;2023-04-03T02:45:40;9.98;;;2.20;;
43160;SDS011;40968;52.342;5.528;2023-04-03T02:48:06;17.80;;;2.90;;
43160;SDS011;40968;52.342;5.528;2023-04-03T02:50:33;7.05;;;2.55;;
43160;SDS011;40968;52.342;5.528;2023-04-03T02:52:59;9.45;;;2.35;;
43160;SDS011;40968;52.342;5.528;2023-04-03T02:55:26;4.60;;;1.80;;
43160;SDS011;40968;52.342;5.528;2023-04-03T02:57:54;7.38;;;2.05;;
43160;SDS011;40968;52.342;5.528;2023-04-03T03:00:20;5.85;;;2.25;;
43160;SDS011;40968;52.342;5.528;2023-04-03T03:02:48;5.10;;;2.08;;
43160;SDS011;40968;52.342;5.528;2023-04-03T03:05:15;9.45;;;2.13;;
43160;SDS011;40968;52.342;5.528;2023-04-03T03:07:42;6.55;;;2.10;;
43160;SDS011;40968;52.342;5.528;2023-04-03T03:10:08;6.95;;;2.20;;
43160;SDS011;40968;52.342;5.528;2023-04-03T03:12:35;7.78;;;2.35;;
43160;SDS011;40968;52.342;5.528;2023-04-03T03:15:03;5.88;;;2.33;;
43160;SDS011;40968;52.342;5.528;2023-04-03T03:17:31;5.47;;;2.20;;
43160;SDS011;40968;52.342;5.528;2023-04-03T03:19:57;6.35;;;2.10;;
43160;SDS011;40968;52.342;5.528;2023-04-03T03:22:25;7.32;;;2.35;;
43160;SDS011;40968;52.342;5.528;2023-04-03T03:24:51;6.45;;;2.17;;
43160;SDS011;40968;52.342;5.528;2023-04-03T03:27:18;6.38;;;2.20;;
43160;SDS011;40968;52.342;5.528;2023-04-03T03:29:45;11.13;;;2.38;;
43160;SDS011;40968;52.342;5.528;2023-04-03T03:32:12;10.55;;;2.30;;
43160;SDS011;40968;52.342;5.528;2023-04-03T03:34:39;8.40;;;2.30;;
43160;SDS011;40968;52.342;5.528;2023-04-03T03:37:06;8.10;;;2.40;;
43160;SDS011;40968;52.342;5.528;2023-04-03T03:39:32;6.85;;;2.30;;
43160;SDS011;40968;52.342;5.528;2023-04-03T03:41:59;6.20;;;2.10;;
43160;SDS011;40968;52.342;5.528;2023-04-03T03:44:25;10.40;;;2.50;;
43160;SDS011;40968;52.342;5.528;2023-04-03T03:46:54;9.77;;;2.67;;
43160;SDS011;40968;52.342;5.528;2023-04-03T03:49:22;10.20;;;2.78;;
43160;SDS011;40968;52.342;5.528;2023-04-03T03:51:49;7.68;;;2.40;;
43160;SDS011;40968;52.342;5.528;2023-04-03T03:54:16;8.80;;;2.55;;
43160;SDS011;40968;52.342;5.528;2023-04-03T03:56:43;10.95;;;2.20;;
43160;SDS011;40968;52.342;5.528;2023-04-03T03:59:11;9.35;;;2.42;;
43160;SDS011;40968;52.342;5.528;2023-04-03T04:01:37;8.60;;;2.33;;
43160;SDS011;40968;52.342;5.528;2023-04-03T04:04:04;4.90;;;2.10;;
43160;SDS011;40968;52.342;5.528;2023-04-03T04:06:32;8.48;;;2.60;;
43160;SDS011;40968;52.342;5.528;2023-04-03T04:08:59;15.73;;;2.40;;
43160;SDS011;40968;52.342;5.528;2023-04-03T04:11:25;6.93;;;2.30;;
43160;SDS011;40968;52.342;5.528;2023-04-03T04:13:52;7.70;;;2.28;;
43160;SDS011;40968;52.342;5.528;2023-04-03T04:16:19;10.23;;;2.33;;
43160;SDS011;40968;52.342;5.528;2023-04-03T04:18:45;7.15;;;2.40;;
43160;SDS011;40968;52.342;5.528;2023-04-03T04:21:12;5.47;;;2.30;;
43160;SDS011;40968;52.342;5.528;2023-04-03T04:23:40;13.25;;;2.38;;
43160;SDS011;40968;52.342;5.528;2023-04-03T04:26:06;9.27;;;2.30;;
43160;SDS011;40968;52.342;5.528;2023-04-03T04:28:33;9.40;;;2.85;;
43160;SDS011;40968;52.342;5.528;2023-04-03T04:31:00;5.32;;;2.10;;
43160;SDS011;40968;52.342;5.528;2023-04-03T04:33:26;8.32;;;2.42;;
43160;SDS011;40968;52.342;5.528;2023-04-03T04:35:53;8.05;;;2.72;;
43160;SDS011;40968;52.342;5.528;2023-04-03T04:38:19;7.88;;;2.33;;
43160;SDS011;40968;52.342;5.528;2023-04-03T04:40:48;8.13;;;2.42;;
43160;SDS011;40968;52.342;5.528;2023-04-03T04:43:14;10.20;;;3.28;;
43160;SDS011;40968;52.342;5.528;2023-04-03T04:45:43;11.90;;;2.75;;
43160;SDS011;40968;52.342;5.528;2023-04-03T04:48:09;7.18;;;2.45;;
43160;SDS011;40968;52.342;5.528;2023-04-03T04:50:36;8.60;;;2.45;;
43160;SDS011;40968;52.342;5.528;2023-04-03T04:53:02;8.73;;;2.47;;
43160;SDS011;40968;52.342;5.528;2023-04-03T04:55:30;12.15;;;2.92;;
43160;SDS011;40968;52.342;5.528;2023-04-03T04:57:58;8.52;;;2.30;;
43160;SDS011;40968;52.342;5.528;2023-04-03T05:00:24;7.55;;;2.35;;
43160;SDS011;40968;52.342;5.528;2023-04-03T05:02:51;6.55;;;2.40;;
43160;SDS011;40968;52.342;5.528;2023-04-03T05:05:17;5.88;;;2.30;;
43160;SDS011;40968;52.342;5.528;2023-04-03T05:07:44;7.55;;;2.33;;
43160;SDS011;40968;52.342;5.528;2023-04-03T05:10:11;5.65;;;2.28;;
43160;SDS011;40968;52.342;5.528;2023-04-03T05:12:37;8.18;;;2.40;;
43160;SDS011;40968;52.342;5.528;2023-04-03T05:15:06;7.90;;;2.28;;
43160;SDS011;40968;52.342;5.528;2023-04-03T05:17:33;7.60;;;2.40;;
43160;SDS011;40968;52.342;5.528;2023-04-03T05:20:00;11.02;;;2.47;;
43160;SDS011;40968;52.342;5.528;2023-04-03T05:22:27;9.63;;;2.42;;
43160;SDS011;40968;52.342;5.528;2023-04-03T05:24:53;9.70;;;2.22;;
43160;SDS011;40968;52.342;5.528;2023-04-03T05:27:20;10.27;;;2.92;;
43160;SDS011;40968;52.342;5.528;2023-04-03T05:29:48;7.38;;;2.35;;
43160;SDS011;40968;52.342;5.528;2023-04-03T05:32:16;10.98;;;2.97;;
43160;SDS011;40968;52.342;5.528;2023-04-03T05:34:43;12.38;;;2.80;;
43160;SDS011;40968;52.342;5.528;2023-04-03T05:37:10;11.45;;;2.83;;
43160;SDS011;40968;52.342;5.528;2023-04-03T05:39:36;13.80;;;2.65;;
43160;SDS011;40968;52.342;5.528;2023-04-03T05:42:05;7.53;;;2.80;;
43160;SDS011;40968;52.342;5.528;2023-04-03T05:44:32;8.68;;;2.08;;
43160;SDS011;40968;52.342;5.528;2023-04-03T05:46:59;7.68;;;2.70;;
43160;SDS011;40968;52.342;5.528;2023-04-03T05:49:27;14.18;;;2.88;;
43160;SDS011;40968;52.342;5.528;2023-04-03T05:51:53;8.63;;;3.20;;
43160;SDS011;40968;52.342;5.528;2023-04-03T05:54:22;7.28;;;2.50;;
43160;SDS011;40968;52.342;5.528;2023-04-03T05:56:50;19.73;;;3.03;;
43160;SDS011;40968;52.342;5.528;2023-04-03T05:59:18;13.93;;;3.03;;
43160;SDS011;40968;52.342;5.528;2023-04-03T06:01:45;9.07;;;2.28;;
43160;SDS011;40968;52.342;5.528;2023-04-03T06:04:12;12.77;;;3.85;;
43160;SDS011;40968;52.342;5.528;2023-04-03T06:06:44;9.68;;;2.80;;
43160;SDS011;40968;52.342;5.528;2023-04-03T06:09:12;7.93;;;2.80;;
43160;SDS011;40968;52.342;5.528;2023-04-03T06:11:38;6.63;;;2.47;;
43160;SDS011;40968;52.342;5.528;2023-04-03T06:14:05;11.43;;;3.17;;
43160;SDS011;40968;52.342;5.528;2023-04-03T06:16:33;7.35;;;2.70;;
43160;SDS011;40968;52.342;5.528;2023-04-03T06:18:59;12.70;;;2.88;;
43160;SDS011;40968;52.342;5.528;2023-04-03T06:21:27;8.77;;;2.70;;
43160;SDS011;40968;52.342;5.528;2023-04-03T06:23:55;7.65;;;2.67;;
43160;SDS011;40968;52.342;5.528;2023-04-03T06:26:22;9.90;;;2.80;;
43160;SDS011;40968;52.342;5.528;2023-04-03T06:28:48;6.28;;;2.80;;
43160;SDS011;40968;52.342;5.528;2023-04-03T06:31:15;9.77;;;2.40;;
43160;SDS011;40968;52.342;5.528;2023-04-03T06:33:42;7.53;;;2.65;;
43160;SDS011;40968;52.342;5.528;2023-04-03T06:36:09;8.43;;;2.53;;
43160;SDS011;40968;52.342;5.528;2023-04-03T06:38:37;9.32;;;2.90;;
43160;SDS011;40968;52.342;5.528;2023-04-03T06:41:05;10.57;;;3.13;;
43160;SDS011;40968;52.342;5.528;2023-04-03T06:43:32;7.72;;;2.72;;
43160;SDS011;40968;52.342;5.528;2023-04-03T06:45:58;10.82;;;3.03;;
43160;SDS011;40968;52.342;5.528;2023-04-03T06:48:25;8.13;;;2.85;;
43160;SDS011;40968;52.342;5.528;2023-04-03T06:50:52;11.80;;;2.55;;
43160;SDS011;40968;52.342;5.528;2023-04-03T06:53:19;9.35;;;2.20;;
43160;SDS011;40968;52.342;5.528;2023-04-03T06:55:45;12.45;;;4.32;;
43160;SDS011;40968;52.342;5.528;2023-04-03T06:58:14;10.32;;;2.80;;
43160;SDS011;40968;52.342;5.528;2023-04-03T07:00:42;13.48;;;3.75;;
43160;SDS011;40968;52.342;5.528;2023-04-03T07:03:08;12.07;;;2.70;;
43160;SDS011;40968;52.342;5.528;2023-04-03T07:05:35;7.45;;;2.67;;
43160;SDS011;40968;52.342;5.528;2023-04-03T07:08:02;6.18;;;2.42;;
43160;SDS011;40968;52.342;5.528;2023-04-03T07:10:29;7.47;;;3.03;;
43160;SDS011;40968;52.342;5.528;2023-04-03T07:12:55;9.05;;;2.70;;
43160;SDS011;40968;52.342;5.528;2023-04-03T07:15:24;6.55;;;2.50;;
43160;SDS011;40968;52.342;5.528;2023-04-03T07:17:50;12.65;;;2.78;;
43160;SDS011;40968;52.342;5.528;2023-04-03T07:20:17;9.50;;;3.00;;
43160;SDS011;40968;52.342;5.528;2023-04-03T07:22:44;9.52;;;2.83;;
43160;SDS011;40968;52.342;5.528;2023-04-03T07:25:11;9.85;;;2.65;;
43160;SDS011;40968;52.342;5.528;2023-04-03T07:27:38;9.35;;;2.75;;
43160;SDS011;40968;52.342;5.528;2023-04-03T07:30:05;8.20;;;2.78;;
43160;SDS011;40968;52.342;5.528;2023-04-03T07:32:34;8.95;;;2.33;;
43160;SDS011;40968;52.342;5.528;2023-04-03T07:35:00;5.53;;;2.40;;
43160;SDS011;40968;52.342;5.528;2023-04-03T07:37:27;9.35;;;2.70;;
43160;SDS011;40968;52.342;5.528;2023-04-03T07:39:54;14.05;;;2.78;;
43160;SDS011;40968;52.342;5.528;2023-04-03T07:42:22;10.40;;;2.28;;
43160;SDS011;40968;52.342;5.528;2023-04-03T07:44:48;5.82;;;2.20;;
43160;SDS011;40968;52.342;5.528;2023-04-03T07:47:16;6.65;;;1.90;;
43160;SDS011;40968;52.342;5.528;2023-04-03T07:49:44;9.98;;;2.20;;
43160;SDS011;40968;52.342;5.528;2023-04-03T07:52:11;9.02;;;2.38;;
43160;SDS011;40968;52.342;5.528;2023-04-03T07:54:38;9.98;;;1.70;;
43160;SDS011;40968;52.342;5.528;2023-04-03T07:57:05;6.88;;;2.20;;
43160;SDS011;40968;52.342;5.528;2023-04-03T07:59:31;11.57;;;2.13;;
43160;SDS011;40968;52.342;5.528;2023-04-03T08:01:58;6.82;;;2.08;;
43160;SDS011;40968;52.342;5.528;2023-04-03T08:04:25;6.05;;;1.58;;
43160;SDS011;40968;52.342;5.528;2023-04-03T08:06:53;6.63;;;2.13;;
43160;SDS011;40968;52.342;5.528;2023-04-03T08:09:19;5.57;;;2.10;;
43160;SDS011;40968;52.342;5.528;2023-04-03T08:11:47;5.63;;;1.58;;
43160;SDS011;40968;52.342;5.528;2023-04-03T08:14:13;5.63;;;2.13;;
43160;SDS011;40968;52.342;5.528;2023-04-03T08:16:43;5.75;;;1.80;;
43160;SDS011;40968;52.342;5.528;2023-04-03T08:19:11;5.20;;;1.52;;
43160;SDS011;40968;52.342;5.528;2023-04-03T08:21:39;6.03;;;1.40;;
43160;SDS011;40968;52.342;5.528;2023-04-03T08:24:07;5.80;;;1.63;;
43160;SDS011;40968;52.342;5.528;2023-04-03T08:26:35;4.65;;;1.80;;
43160;SDS011;40968;52.342;5.528;2023-04-03T08:29:02;5.18;;;1.80;;
43160;SDS011;40968;52.342;5.528;2023-04-03T08:31:29;6.35;;;1.45;;
43160;SDS011;40968;52.342;5.528;2023-04-03T08:33:56;2.80;;;1.40;;
43160;SDS011;40968;52.342;5.528;2023-04-03T08:36:24;3.95;;;1.48;;
43160;SDS011;40968;52.342;5.528;2023-04-03T08:38:52;4.18;;;1.50;;
43160;SDS011;40968;52.342;5.528;2023-04-03T08:41:24;2.35;;;1.20;;
43160;SDS011;40968;52.342;5.528;2023-04-03T08:43:58;2.65;;;0.98;;
43160;SDS011;40968;52.342;5.528;2023-04-03T08:46:34;6.10;;;1.20;;
43160;SDS011;40968;52.342;5.528;2023-04-03T08:49:10;2.25;;;1.00;;
43160;SDS011;40968;52.342;5.528;2023-04-03T08:51:46;3.72;;;1.35;;
43160;SDS011;40968;52.342;5.528;2023-04-03T08:54:18;6.22;;;1.05;;
43160;SDS011;40968;52.342;5.528;2023-04-03T08:56:53;5.88;;;1.38;;
43160;SDS011;40968;52.342;5.528;2023-04-03T08:59:23;2.08;;;0.80;;
43160;SDS011;40968;52.342;5.528;2023-04-03T09:01:53;3.08;;;1.23;;
43160;SDS011;40968;52.342;5.528;2023-04-03T09:04:22;2.28;;;0.93;;
43160;SDS011;40968;52.342;5.528;2023-04-03T09:06:49;1.98;;;1.13;;
43160;SDS011;40968;52.342;5.528;2023-04-03T09:09:24;5.43;;;1.23;;
43160;SDS011;40968;52.342;5.528;2023-04-03T09:12:00;4.10;;;1.20;;
43160;SDS011;40968;52.342;5.528;2023-04-03T09:14:36;4.32;;;1.08;;
43160;SDS011;40968;52.342;5.528;2023-04-03T09:17:09;5.70;;;1.02;;
43160;SDS011;40968;52.342;5.528;2023-04-03T09:19:41;2.00;;;0.70;;
43160;SDS011;40968;52.342;5.528;2023-04-03T09:22:16;1.75;;;0.82;;
43160;SDS011;40968;52.342;5.528;2023-04-03T09:24:45;4.20;;;0.88;;
43160;SDS011;40968;52.342;5.528;2023-04-03T09:27:14;3.13;;;1.38;;
43160;SDS011;40968;52.342;5.528;2023-04-03T09:29:42;2.22;;;0.70;;
43160;SDS011;40968;52.342;5.528;2023-04-03T09:32:18;2.25;;;0.75;;
43160;SDS011;40968;52.342;5.528;2023-04-03T09:34:51;4.55;;;1.48;;
43160;SDS011;40968;52.342;5.528;2023-04-03T09:37:36;2.65;;;1.00;;
43160;SDS011;40968;52.342;5.528;2023-04-03T09:40:06;7.40;;;1.48;;
43160;SDS011;40968;52.342;5.528;2023-04-03T09:43:01;1.10;;;0.60;;
43160;SDS011;40968;52.342;5.528;2023-04-03T09:45:30;2.13;;;0.73;;
43160;SDS011;40968;52.342;5.528;2023-04-03T09:48:04;3.53;;;0.63;;
43160;SDS011;40968;52.342;5.528;2023-04-03T09:50:33;1.88;;;0.70;;
43160;SDS011;40968;52.342;5.528;2023-04-03T09:53:04;3.72;;;1.13;;
43160;SDS011;40968;52.342;5.528;2023-04-03T09:55:32;2.13;;;0.90;;
43160;SDS011;40968;52.342;5.528;2023-04-03T09:58:00;2.28;;;1.00;;
43160;SDS011;40968;52.342;5.528;2023-04-03T10:00:30;1.85;;;0.65;;
43160;SDS011;40968;52.342;5.528;2023-04-03T10:02:59;4.30;;;1.00;;
43160;SDS011;40968;52.342;5.528;2023-04-03T10:05:28;1.35;;;0.60;;
43160;SDS011;40968;52.342;5.528;2023-04-03T10:08:08;2.47;;;0.60;;
43160;SDS011;40968;52.342;5.528;2023-04-03T10:10:36;2.15;;;0.55;;
43160;SDS011;40968;52.342;5.528;2023-04-03T10:13:06;3.55;;;0.80;;
43160;SDS011;40968;52.342;5.528;2023-04-03T10:15:35;1.83;;;0.50;;
43160;SDS011;40968;52.342;5.528;2023-04-03T10:18:06;2.42;;;0.60;;
43160;SDS011;40968;52.342;5.528;2023-04-03T10:20:49;3.53;;;0.80;;
43160;SDS011;40968;52.342;5.528;2023-04-03T10:23:18;1.30;;;0.93;;
43160;SDS011;40968;52.342;5.528;2023-04-03T10:25:54;2.28;;;0.60;;
43160;SDS011;40968;52.342;5.528;2023-04-03T10:28:31;1.60;;;0.70;;
43160;SDS011;40968;52.342;5.528;2023-04-03T10:31:03;1.35;;;0.68;;
43160;SDS011;40968;52.342;5.528;2023-04-03T10:33:41;3.17;;;0.80;;
43160;SDS011;40968;52.342;5.528;2023-04-03T10:36:17;4.65;;;1.10;;
43160;SDS011;40968;52.342;5.528;2023-04-03T10:38:54;2.28;;;0.45;;
43160;SDS011;40968;52.342;5.528;2023-04-03T10:41:28;1.42;;;0.70;;
43160;SDS011;40968;52.342;5.528;2023-04-03T10:44:10;2.13;;;0.75;;
43160;SDS011;40968;52.342;5.528;2023-04-03T10:46:43;2.55;;;0.77;;
43160;SDS011;40968;52.342;5.528;2023-04-03T10:49:17;1.35;;;0.40;;
43160;SDS011;40968;52.342;5.528;2023-04-03T10:51:53;2.97;;;0.70;;
43160;SDS011;40968;52.342;5.528;2023-04-03T10:54:31;0.95;;;0.50;;
43160;SDS011;40968;52.342;5.528;2023-04-03T10:57:04;1.30;;;0.60;;
43160;SDS011;40968;52.342;5.528;2023-04-03T10:59:35;2.67;;;0.70;;
43160;SDS011;40968;52.342;5.528;2023-04-03T11:02:06;3.95;;;0.68;;
43160;SDS011;40968;52.342;5.528;2023-04-03T11:04:40;2.05;;;0.60;;
43160;SDS011;40968;52.342;5.528;2023-04-03T11:07:12;4.70;;;0.73;;
43160;SDS011;40968;52.342;5.528;2023-04-03T11:09:44;1.88;;;0.80;;
43160;SDS011;40968;52.342;5.528;2023-04-03T11:12:16;9.45;;;1.30;;
43160;SDS011;40968;52.342;5.528;2023-04-03T11:14:48;1.75;;;0.50;;
43160;SDS011;40968;52.342;5.528;2023-04-03T11:17:23;4.80;;;0.70;;
43160;SDS011;40968;52.342;5.528;2023-04-03T11:19:58;2.65;;;0.70;;
43160;SDS011;40968;52.342;5.528;2023-04-03T11:22:32;1.92;;;0.80;;
43160;SDS011;40968;52.342;5.528;2023-04-03T11:25:04;2.67;;;0.77;;
43160;SDS011;40968;52.342;5.528;2023-04-03T11:27:37;1.60;;;0.50;;
43160;SDS011;40968;52.342;5.528;2023-04-03T11:30:13;2.42;;;0.80;;
43160;SDS011;40968;52.342;5.528;2023-04-03T11:32:49;1.80;;;0.80;;
43160;SDS011;40968;52.342;5.528;2023-04-03T11:35:34;2.45;;;1.10;;
43160;SDS011;40968;52.342;5.528;2023-04-03T11:38:01;1.75;;;0.60;;
43160;SDS011;40968;52.342;5.528;2023-04-03T11:40:31;1.33;;;0.80;;
43160;SDS011;40968;52.342;5.528;2023-04-03T11:43:04;1.63;;;0.68;;
43160;SDS011;40968;52.342;5.528;2023-04-03T11:45:36;2.85;;;0.85;;
43160;SDS011;40968;52.342;5.528;2023-04-03T11:48:05;2.55;;;1.00;;
43160;SDS011;40968;52.342;5.528;2023-04-03T11:50:52;2.95;;;0.98;;
43160;SDS011;40968;52.342;5.528;2023-04-03T11:53:26;3.05;;;0.90;;
43160;SDS011;40968;52.342;5.528;2023-04-03T11:55:59;2.72;;;0.90;;
43160;SDS011;40968;52.342;5.528;2023-04-03T11:58:27;3.28;;;0.70;;
43160;SDS011;40968;52.342;5.528;2023-04-03T12:04:09;1.58;;;0.60;;
43160;SDS011;40968;52.342;5.528;2023-04-03T12:06:50;3.45;;;1.15;;
43160;SDS011;40968;52.342;5.528;2023-04-03T12:09:24;14.48;;;2.60;;
43160;SDS011;40968;52.342;5.528;2023-04-03T12:12:01;9.73;;;1.10;;
43160;SDS011;40968;52.342;5.528;2023-04-03T12:14:50;4.90;;;1.10;;
43160;SDS011;40968;52.342;5.528;2023-04-03T12:17:21;7.75;;;1.10;;
43160;SDS011;40968;52.342;5.528;2023-04-03T12:19:54;7.32;;;0.85;;
43160;SDS011;40968;52.342;5.528;2023-04-03T12:22:21;8.18;;;0.90;;
43160;SDS011;40968;52.342;5.528;2023-04-03T12:24:48;9.18;;;1.10;;
43160;SDS011;40968;52.342;5.528;2023-04-03T12:27:27;1.50;;;0.70;;
43160;SDS011;40968;52.342;5.528;2023-04-03T12:30:07;8.52;;;1.00;;
43160;SDS011;40968;52.342;5.528;2023-04-03T12:32:47;3.70;;;1.02;;
43160;SDS011;40968;52.342;5.528;2023-04-03T12:35:22;1.90;;;0.90;;
43160;SDS011;40968;52.342;5.528;2023-04-03T12:41:12;2.53;;;0.90;;
43160;SDS011;40968;52.342;5.528;2023-04-03T12:44:02;6.63;;;1.10;;
43160;SDS011;40968;52.342;5.528;2023-04-03T12:46:42;7.53;;;1.10;;
43160;SDS011;40968;52.342;5.528;2023-04-03T12:49:18;3.65;;;1.15;;
43160;SDS011;40968;52.342;5.528;2023-04-03T12:51:58;2.50;;;0.80;;
43160;SDS011;40968;52.342;5.528;2023-04-03T12:54:26;7.90;;;1.10;;
43160;SDS011;40968;52.342;5.528;2023-04-03T12:57:08;3.17;;;0.85;;
43160;SDS011;40968;52.342;5.528;2023-04-03T12:59:35;3.78;;;1.10;;
43160;SDS011;40968;52.342;5.528;2023-04-03T13:02:10;3.65;;;1.00;;
43160;SDS011;40968;52.342;5.528;2023-04-03T13:04:47;4.22;;;0.80;;
43160;SDS011;40968;52.342;5.528;2023-04-03T13:07:22;3.83;;;1.15;;
43160;SDS011;40968;52.342;5.528;2023-04-03T13:09:55;6.10;;;0.98;;
43160;SDS011;40968;52.342;5.528;2023-04-03T13:12:24;1.95;;;0.90;;
43160;SDS011;40968;52.342;5.528;2023-04-03T13:14:51;3.40;;;1.02;;
43160;SDS011;40968;52.342;5.528;2023-04-03T13:17:19;3.53;;;1.15;;
43160;SDS011;40968;52.342;5.528;2023-04-03T13:19:47;2.72;;;1.15;;
43160;SDS011;40968;52.342;5.528;2023-04-03T13:22:19;2.17;;;1.10;;
43160;SDS011;40968;52.342;5.528;2023-04-03T13:24:53;4.05;;;0.88;;
43160;SDS011;40968;52.342;5.528;2023-04-03T13:27:21;3.08;;;1.02;;
43160;SDS011;40968;52.342;5.528;2023-04-03T13:29:49;2.78;;;1.27;;
43160;SDS011;40968;52.342;5.528;2023-04-03T13:32:18;3.90;;;1.38;;
43160;SDS011;40968;52.342;5.528;2023-04-03T13:34:49;4.03;;;1.13;;
43160;SDS011;40968;52.342;5.528;2023-04-03T13:37:19;6.47;;;2.08;;
43160;SDS011;40968;52.342;5.528;2023-04-03T13:39:56;2.65;;;1.13;;
43160;SDS011;40968;52.342;5.528;2023-04-03T13:42:25;1.42;;;0.90;;
43160;SDS011;40968;52.342;5.528;2023-04-03T13:47:46;1.83;;;1.00;;
43160;SDS011;40968;52.342;5.528;2023-04-03T13:50:16;2.25;;;0.90;;
43160;SDS011;40968;52.342;5.528;2023-04-03T13:52:46;3.13;;;1.17;;
43160;SDS011;40968;52.342;5.528;2023-04-03T13:55:16;3.17;;;1.10;;
43160;SDS011;40968;52.342;5.528;2023-04-03T13:57:50;4.00;;;1.00;;
43160;SDS011;40968;52.342;5.528;2023-04-03T14:00:27;5.80;;;1.20;;
43160;SDS011;40968;52.342;5.528;2023-04-03T14:02:56;4.07;;;0.98;;
43160;SDS011;40968;52.342;5.528;2023-04-03T14:05:25;3.75;;;1.10;;
43160;SDS011;40968;52.342;5.528;2023-04-03T14:07:52;1.80;;;0.90;;
43160;SDS011;40968;52.342;5.528;2023-04-03T14:10:18;3.75;;;1.20;;
43160;SDS011;40968;52.342;5.528;2023-04-03T14:12:45;4.80;;;1.00;;
43160;SDS011;40968;52.342;5.528;2023-04-03T14:15:16;1.63;;;1.00;;
43160;SDS011;40968;52.342;5.528;2023-04-03T14:17:46;2.90;;;0.90;;
43160;SDS011;40968;52.342;5.528;2023-04-03T14:20:14;5.47;;;1.10;;
43160;SDS011;40968;52.342;5.528;2023-04-03T14:22:43;2.95;;;0.80;;
43160;SDS011;40968;52.342;5.528;2023-04-03T14:25:10;6.60;;;1.40;;
43160;SDS011;40968;52.342;5.528;2023-04-03T14:27:38;3.25;;;1.33;;
43160;SDS011;40968;52.342;5.528;2023-04-03T14:30:08;1.83;;;0.93;;
43160;SDS011;40968;52.342;5.528;2023-04-03T14:32:39;4.95;;;1.15;;
43160;SDS011;40968;52.342;5.528;2023-04-03T14:35:06;3.95;;;1.10;;
43160;SDS011;40968;52.342;5.528;2023-04-03T14:37:36;6.23;;;1.10;;
43160;SDS011;40968;52.342;5.528;2023-04-03T14:40:05;4.22;;;1.10;;
43160;SDS011;40968;52.342;5.528;2023-04-03T14:42:35;4.75;;;1.25;;
43160;SDS011;40968;52.342;5.528;2023-04-03T14:45:04;4.05;;;0.90;;
43160;SDS011;40968;52.342;5.528;2023-04-03T14:47:33;8.70;;;1.30;;
43160;SDS011;40968;52.342;5.528;2023-04-03T14:50:06;6.90;;;1.25;;
43160;SDS011;40968;52.342;5.528;2023-04-03T14:52:35;3.25;;;1.08;;
43160;SDS011;40968;52.342;5.528;2023-04-03T14:55:05;4.57;;;1.40;;
43160;SDS011;40968;52.342;5.528;2023-04-03T14:57:32;3.85;;;1.20;;
43160;SDS011;40968;52.342;5.528;2023-04-03T15:00:00;2.42;;;0.88;;
43160;SDS011;40968;52.342;5.528;2023-04-03T15:02:29;5.03;;;1.38;;
43160;SDS011;40968;52.342;5.528;2023-04-03T15:04:57;3.65;;;1.10;;
43160;SDS011;40968;52.342;5.528;2023-04-03T15:07:26;5.43;;;1.35;;
43160;SDS011;40968;52.342;5.528;2023-04-03T15:09:55;4.95;;;1.42;;